Time;durP1;ratioP1;P1;durP2;ratioP2;P2;SDS_P1;SDS_P2;PMS_P1;PMS_P2;Temp;Humidity;BMP_temperature;BMP_pressure;BME280_temperature;BME280_humidity;BME280_pressure;Samples;Min_cycle;Max_cycle;Signal;HPM_P1;HPM_P2
2023/09/23 00:02:21;;;;;;;3.55;1.88;;;12.80;99.90;;;;;;5023814;28;20595;-54
2023/09/23 00:04:46;;;;;;;3.67;2.58;;;12.90;99.90;;;;;;5020376;28;20108;-56
2023/09/23 00:07:12;;;;;;;4.18;1.90;;;12.80;99.90;;;;;;5029267;28;20185;-59
2023/09/23 00:09:39;;;;;;;4.32;2.17;;;12.80;99.90;;;;;;5025592;28;20076;-57
2023/09/23 00:12:05;;;;;;;3.80;1.92;;;12.70;99.90;;;;;;5017839;28;20029;-56
2023/09/23 00:14:31;;;;;;;2.83;2.13;;;12.60;99.90;;;;;;5020307;28;20026;-56
2023/09/23 00:16:56;;;;;;;8.70;2.83;;;12.50;99.90;;;;;;5023472;28;20040;-57
2023/09/23 00:19:22;;;;;;;6.47;2.13;;;12.40;99.90;;;;;;5022630;28;20018;-53
2023/09/23 00:21:49;;;;;;;13.93;4.68;;;12.40;99.90;;;;;;5021720;28;20028;-55
2023/09/23 00:24:14;;;;;;;5.80;2.97;;;12.40;99.90;;;;;;5022573;28;20399;-51
2023/09/23 00:26:40;;;;;;;5.32;3.78;;;12.40;99.90;;;;;;5023373;28;20033;-54
2023/09/23 00:29:06;;;;;;;12.35;4.35;;;12.30;99.90;;;;;;5026844;28;20022;-53
2023/09/23 00:31:31;;;;;;;22.17;7.57;;;12.30;99.90;;;;;;5022622;28;20052;-54
2023/09/23 00:33:57;;;;;;;15.63;6.45;;;12.30;99.90;;;;;;5016529;28;20056;-55
2023/09/23 00:36:22;;;;;;;12.30;9.48;;;12.20;99.90;;;;;;5023677;28;20061;-54
2023/09/23 00:38:48;;;;;;;21.48;12.00;;;12.20;99.90;;;;;;5019086;28;20033;-56
2023/09/23 00:41:14;;;;;;;22.95;13.55;;;12.10;99.90;;;;;;5019559;28;20057;-54
2023/09/23 00:43:40;;;;;;;22.52;16.35;;;12.10;99.90;;;;;;5023147;28;20144;-52
2023/09/23 00:46:07;;;;;;;18.90;13.23;;;12.00;99.90;;;;;;5019945;28;20018;-53
2023/09/23 00:48:38;;;;;;;19.33;12.30;;;12.10;99.90;;;;;;5020554;28;20033;-54
2023/09/23 00:51:04;;;;;;;21.08;12.32;;;12.10;99.90;;;;;;5025074;28;20057;-56
2023/09/23 00:53:30;;;;;;;18.88;11.40;;;12.20;99.90;;;;;;5016907;28;20053;-55
2023/09/23 00:56:00;;;;;;;23.17;11.80;;;12.10;99.90;;;;;;5023504;28;20194;-57
2023/09/23 00:58:26;;;;;;;27.95;12.95;;;12.10;99.90;;;;;;5022313;28;20033;-54
2023/09/23 01:00:54;;;;;;;17.67;10.95;;;12.00;99.90;;;;;;5024305;28;20044;-57
2023/09/23 01:03:20;;;;;;;20.40;11.65;;;12.00;99.90;;;;;;5021795;28;20518;-50
2023/09/23 01:05:47;;;;;;;16.67;10.13;;;11.90;99.90;;;;;;5021412;28;20044;-55
2023/09/23 01:08:18;;;;;;;18.42;11.48;;;11.70;99.90;;;;;;5024110;28;20037;-57
2023/09/23 01:10:45;;;;;;;19.48;10.60;;;11.60;99.90;;;;;;5018957;28;20077;-58
2023/09/23 01:13:11;;;;;;;21.88;12.18;;;11.60;99.90;;;;;;5015465;28;20030;-55
2023/09/23 01:15:40;;;;;;;20.30;12.52;;;11.50;99.90;;;;;;5021488;28;20100;-54
2023/09/23 01:18:07;;;;;;;27.52;13.50;;;11.50;99.90;;;;;;5016358;28;20388;-53
2023/09/23 01:20:33;;;;;;;24.80;13.55;;;11.50;99.90;;;;;;5018453;28;20025;-51
2023/09/23 01:22:59;;;;;;;27.17;14.60;;;11.50;99.90;;;;;;5017208;28;20038;-55
2023/09/23 01:25:27;;;;;;;22.02;12.80;;;11.40;99.90;;;;;;5022650;28;20026;-56
2023/09/23 01:27:53;;;;;;;21.95;13.00;;;11.40;99.90;;;;;;5024763;28;20100;-57
2023/09/23 01:30:21;;;;;;;18.10;11.52;;;11.30;99.90;;;;;;5017756;28;20018;-56
2023/09/23 01:32:49;;;;;;;19.63;11.48;;;11.30;99.90;;;;;;5020803;28;20018;-57
2023/09/23 01:35:16;;;;;;;20.00;10.27;;;11.30;99.90;;;;;;5020281;28;20630;-52
2023/09/23 01:37:46;;;;;;;18.73;9.93;;;11.30;99.90;;;;;;5023257;28;20121;-55
2023/09/23 01:40:17;;;;;;;17.85;9.45;;;11.40;99.90;;;;;;5023780;28;20029;-57
2023/09/23 01:42:51;;;;;;;13.02;7.18;;;11.40;99.90;;;;;;5022516;28;20511;-58
2023/09/23 01:45:19;;;;;;;12.23;7.78;;;11.40;99.90;;;;;;5021270;28;20072;-56
2023/09/23 01:47:45;;;;;;;9.30;5.05;;;11.50;99.90;;;;;;5022683;28;20034;-53
2023/09/23 01:50:11;;;;;;;10.82;5.05;;;11.50;99.90;;;;;;5019009;28;20899;-57
2023/09/23 01:52:37;;;;;;;11.23;5.05;;;11.40;99.90;;;;;;5024470;28;20021;-57
2023/09/23 01:55:05;;;;;;;9.23;5.07;;;11.40;99.90;;;;;;5012684;28;20076;-53
2023/09/23 01:57:33;;;;;;;11.73;4.57;;;11.40;99.90;;;;;;5024552;28;20025;-57
2023/09/23 01:59:59;;;;;;;9.88;4.88;;;11.30;99.90;;;;;;5023419;28;20475;-57
2023/09/23 02:02:26;;;;;;;5.43;3.88;;;11.30;99.90;;;;;;5018935;28;20033;-58
2023/09/23 02:04:52;;;;;;;6.18;3.80;;;11.20;99.90;;;;;;5021024;28;20029;-55
2023/09/23 02:07:18;;;;;;;10.02;4.22;;;11.30;99.90;;;;;;5018702;28;20052;-56
2023/09/23 02:09:45;;;;;;;6.95;4.05;;;11.20;99.90;;;;;;5026285;28;20108;-53
2023/09/23 02:12:12;;;;;;;6.65;4.05;;;11.30;99.90;;;;;;5022186;28;20434;-56
2023/09/23 02:14:39;;;;;;;5.97;3.42;;;11.30;99.90;;;;;;5021700;28;20030;-56
2023/09/23 02:17:05;;;;;;;4.82;2.85;;;11.30;99.90;;;;;;5023243;28;20064;-59
2023/09/23 02:19:30;;;;;;;10.57;3.53;;;11.30;99.90;;;;;;5023000;28;20535;-58
2023/09/23 02:21:56;;;;;;;5.93;2.92;;;11.30;99.90;;;;;;5020284;28;20021;-57
2023/09/23 02:24:22;;;;;;;3.50;2.15;;;11.30;99.90;;;;;;5021114;28;20172;-57
2023/09/23 02:26:48;;;;;;;12.23;2.63;;;11.40;99.90;;;;;;5021533;28;20380;-54
2023/09/23 02:29:14;;;;;;;4.43;2.33;;;11.40;99.90;;;;;;5019457;28;20026;-57
2023/09/23 02:31:48;;;;;;;5.07;2.10;;;11.40;99.90;;;;;;5016951;28;20105;-58
2023/09/23 02:34:18;;;;;;;8.00;2.63;;;11.30;99.90;;;;;;5024145;28;20029;-58
2023/09/23 02:36:47;;;;;;;4.00;2.63;;;11.20;99.90;;;;;;5015865;28;20037;-57
2023/09/23 02:39:16;;;;;;;4.30;2.40;;;11.20;99.90;;;;;;5022993;28;20029;-56
2023/09/23 02:41:45;;;;;;;6.43;2.45;;;11.20;99.90;;;;;;5018849;28;20022;-52
2023/09/23 02:44:11;;;;;;;4.90;2.10;;;11.10;99.90;;;;;;5020684;28;20026;-54
2023/09/23 02:46:39;;;;;;;6.13;2.17;;;11.10;99.90;;;;;;5023210;28;20108;-52
2023/09/23 02:49:06;;;;;;;3.35;1.92;;;11.10;99.90;;;;;;5027270;28;20025;-55
2023/09/23 02:51:31;;;;;;;15.85;2.10;;;11.20;99.90;;;;;;5020921;28;20752;-53
2023/09/23 02:53:57;;;;;;;7.00;1.90;;;11.20;99.90;;;;;;5020647;28;20033;-55
2023/09/23 02:56:23;;;;;;;4.68;2.10;;;11.20;99.90;;;;;;5022756;28;20104;-52
2023/09/23 02:58:51;;;;;;;3.78;2.00;;;11.10;99.90;;;;;;5025562;28;20029;-51
2023/09/23 03:01:18;;;;;;;9.57;1.67;;;11.20;99.90;;;;;;5023734;28;20029;-51
2023/09/23 03:03:46;;;;;;;3.05;1.77;;;11.20;99.90;;;;;;5025189;28;20026;-55
2023/09/23 03:06:14;;;;;;;4.30;1.50;;;11.20;99.90;;;;;;5022363;28;20068;-56
2023/09/23 03:08:43;;;;;;;3.60;1.77;;;11.20;99.90;;;;;;5019451;28;20666;-54
2023/09/23 03:11:11;;;;;;;5.47;1.80;;;11.20;99.90;;;;;;5016962;28;20029;-52
2023/09/23 03:13:37;;;;;;;7.10;1.92;;;11.20;99.90;;;;;;5023315;28;20026;-53
2023/09/23 03:16:08;;;;;;;2.03;1.83;;;11.20;99.90;;;;;;5022233;28;20504;-54
2023/09/23 03:18:44;;;;;;;4.10;1.90;;;11.10;99.90;;;;;;5022527;28;20087;-56
2023/09/23 03:21:10;;;;;;;5.65;1.67;;;11.20;99.90;;;;;;5025756;28;20063;-53
2023/09/23 03:23:39;;;;;;;3.83;1.85;;;11.20;99.90;;;;;;5019039;28;20033;-55
2023/09/23 03:26:06;;;;;;;3.92;1.60;;;11.10;99.90;;;;;;5022080;28;20022;-58
2023/09/23 03:28:33;;;;;;;7.72;1.60;;;11.10;99.90;;;;;;5021584;28;20032;-50
2023/09/23 03:31:00;;;;;;;4.30;1.73;;;11.00;99.90;;;;;;5020180;28;20523;-56
2023/09/23 03:33:27;;;;;;;4.68;1.80;;;11.00;99.90;;;;;;5020245;28;20108;-57
2023/09/23 03:35:53;;;;;;;4.60;1.70;;;10.90;99.90;;;;;;5029815;28;20033;-56
2023/09/23 03:38:19;;;;;;;4.72;1.80;;;10.80;99.90;;;;;;5018255;28;20095;-52
2023/09/23 03:40:52;;;;;;;5.65;1.73;;;10.70;99.90;;;;;;5030672;28;20104;-57
2023/09/23 03:43:18;;;;;;;7.07;1.80;;;10.80;99.90;;;;;;5017354;28;20096;-51
2023/09/23 03:45:44;;;;;;;9.93;2.05;;;10.70;99.90;;;;;;5025488;28;20484;-54
2023/09/23 03:48:10;;;;;;;5.30;1.80;;;10.70;99.90;;;;;;5018242;28;20041;-55
2023/09/23 03:50:36;;;;;;;7.65;1.90;;;10.70;99.90;;;;;;5024609;28;20396;-52
2023/09/23 03:53:02;;;;;;;5.53;2.28;;;10.70;99.90;;;;;;5018241;28;20021;-51
2023/09/23 03:55:28;;;;;;;7.88;2.17;;;10.70;99.90;;;;;;5023104;28;20095;-52
2023/09/23 03:57:54;;;;;;;5.60;2.08;;;10.70;99.90;;;;;;5022307;28;20018;-57
2023/09/23 04:00:20;;;;;;;8.73;2.55;;;10.70;99.90;;;;;;5017138;28;20109;-56
2023/09/23 04:02:49;;;;;;;3.28;1.90;;;10.60;99.90;;;;;;5023299;28;20487;-54
2023/09/23 04:05:15;;;;;;;9.23;2.10;;;10.50;99.90;;;;;;5023701;28;20052;-59
2023/09/23 04:07:50;;;;;;;8.50;2.28;;;10.50;99.90;;;;;;5022123;28;20029;-53
2023/09/23 04:10:19;;;;;;;5.32;1.88;;;10.50;99.90;;;;;;5019341;28;20041;-56
2023/09/23 04:12:46;;;;;;;4.28;2.20;;;10.40;99.90;;;;;;5026031;28;20495;-55
2023/09/23 04:15:12;;;;;;;3.67;1.65;;;10.40;99.90;;;;;;5027998;28;20427;-59
2023/09/23 04:17:38;;;;;;;9.25;1.83;;;10.20;99.90;;;;;;5022087;28;20037;-57
2023/09/23 04:20:09;;;;;;;7.63;1.83;;;10.30;99.90;;;;;;5023487;28;20037;-56
2023/09/23 04:22:36;;;;;;;13.77;2.25;;;10.20;99.90;;;;;;5031901;28;20020;-55
2023/09/23 04:25:03;;;;;;;3.20;1.75;;;10.20;99.90;;;;;;5026065;28;20026;-55
2023/09/23 04:27:29;;;;;;;7.05;2.10;;;10.10;99.90;;;;;;5026220;28;20095;-57
2023/09/23 04:29:54;;;;;;;4.97;1.83;;;10.20;99.90;;;;;;5030274;28;20136;-58
2023/09/23 04:32:20;;;;;;;4.43;2.05;;;10.10;99.90;;;;;;5028876;28;20079;-56
2023/09/23 04:34:46;;;;;;;6.35;1.88;;;10.00;99.90;;;;;;5024918;28;20041;-56
2023/09/23 04:37:12;;;;;;;8.88;2.10;;;10.00;99.90;;;;;;5032612;28;20126;-58
2023/09/23 04:39:38;;;;;;;5.25;1.83;;;10.00;99.90;;;;;;5017817;28;20508;-56
2023/09/23 04:42:04;;;;;;;2.60;1.60;;;10.10;99.90;;;;;;5020483;28;20348;-52
2023/09/23 04:44:31;;;;;;;6.43;1.55;;;10.10;99.90;;;;;;5016713;28;20026;-54
2023/09/23 04:46:57;;;;;;;10.77;2.22;;;10.10;99.90;;;;;;5012067;28;20389;-59
2023/09/23 04:49:23;;;;;;;4.07;2.13;;;10.10;99.90;;;;;;5022616;28;20025;-57
2023/09/23 04:51:48;;;;;;;9.05;2.03;;;10.10;99.90;;;;;;5023130;28;20029;-58
2023/09/23 04:54:14;;;;;;;6.78;2.08;;;10.10;99.90;;;;;;5022103;28;20033;-55
2023/09/23 04:56:42;;;;;;;8.05;2.20;;;10.20;99.90;;;;;;5029336;28;20487;-51
2023/09/23 04:59:08;;;;;;;5.90;2.15;;;10.20;99.90;;;;;;5017738;28;20123;-57
2023/09/23 05:01:33;;;;;;;8.18;2.65;;;10.20;99.90;;;;;;5014834;28;20156;-57
2023/09/23 05:04:08;;;;;;;5.05;2.22;;;10.20;99.90;;;;;;5020334;28;20091;-53
2023/09/23 05:06:35;;;;;;;7.32;2.25;;;10.20;99.90;;;;;;5022117;28;20026;-57
2023/09/23 05:09:01;;;;;;;8.40;2.20;;;10.30;99.90;;;;;;5017706;28;20091;-55
2023/09/23 05:11:27;;;;;;;4.88;2.00;;;10.30;99.90;;;;;;5021188;28;20038;-57
2023/09/23 05:13:52;;;;;;;5.60;2.38;;;10.20;99.90;;;;;;5023811;28;20105;-57
2023/09/23 05:16:18;;;;;;;6.55;2.30;;;10.20;99.90;;;;;;5020096;28;20053;-56
2023/09/23 05:18:43;;;;;;;6.15;2.45;;;10.20;99.90;;;;;;5020719;28;20545;-58
2023/09/23 05:21:09;;;;;;;5.70;2.58;;;10.20;99.90;;;;;;5021394;28;20029;-58
2023/09/23 05:23:35;;;;;;;5.05;2.35;;;10.30;99.90;;;;;;5024856;28;20038;-55
2023/09/23 05:26:04;;;;;;;7.80;2.92;;;10.30;99.90;;;;;;5013650;28;20021;-56
2023/09/23 05:28:30;;;;;;;9.50;2.65;;;10.20;99.90;;;;;;5014332;28;20056;-54
2023/09/23 05:30:56;;;;;;;3.85;2.20;;;10.20;99.90;;;;;;5018843;28;20026;-53
2023/09/23 05:33:21;;;;;;;5.95;2.40;;;10.10;99.90;;;;;;5014170;28;20658;-57
2023/09/23 05:35:47;;;;;;;13.75;2.55;;;10.10;99.90;;;;;;5020807;28;20026;-57
2023/09/23 05:38:13;;;;;;;8.13;3.17;;;10.10;99.90;;;;;;5023093;28;20059;-56
2023/09/23 05:40:38;;;;;;;8.75;2.90;;;10.10;99.90;;;;;;5018245;28;20136;-53
2023/09/23 05:43:04;;;;;;;13.65;3.08;;;10.10;99.90;;;;;;5017683;28;20025;-57
2023/09/23 05:45:30;;;;;;;9.43;3.17;;;10.10;99.90;;;;;;5020720;28;20561;-51
2023/09/23 05:47:56;;;;;;;9.73;2.70;;;10.10;99.90;;;;;;5025929;28;20025;-56
2023/09/23 05:50:23;;;;;;;6.55;3.45;;;10.10;99.90;;;;;;5020448;28;20025;-57
2023/09/23 05:52:49;;;;;;;11.75;3.20;;;10.10;99.90;;;;;;5020592;28;20021;-55
2023/09/23 05:55:15;;;;;;;5.00;2.70;;;10.10;99.90;;;;;;5013155;28;20025;-52
2023/09/23 05:57:41;;;;;;;6.40;2.78;;;10.10;99.90;;;;;;5025943;28;20028;-57
2023/09/23 06:00:08;;;;;;;8.38;2.97;;;10.10;99.90;;;;;;5021497;28;20101;-50
2023/09/23 06:02:34;;;;;;;4.05;2.60;;;10.10;99.90;;;;;;5021435;28;20379;-56
2023/09/23 06:05:01;;;;;;;13.52;3.00;;;10.10;99.90;;;;;;5016269;28;20479;-55
2023/09/23 06:07:33;;;;;;;5.93;2.42;;;10.20;99.90;;;;;;5023583;28;20047;-56
2023/09/23 06:09:59;;;;;;;6.68;2.78;;;10.20;99.90;;;;;;5018390;28;20041;-53
2023/09/23 06:12:29;;;;;;;8.05;2.88;;;10.20;99.90;;;;;;5017315;28;20026;-53
2023/09/23 06:14:58;;;;;;;6.90;2.60;;;10.20;99.90;;;;;;5026756;28;20025;-51
2023/09/23 06:17:27;;;;;;;7.15;2.97;;;10.30;99.90;;;;;;5027538;28;20038;-55
2023/09/23 06:19:53;;;;;;;4.97;2.97;;;10.30;99.90;;;;;;5014924;28;20036;-56
2023/09/23 06:22:19;;;;;;;13.13;2.80;;;10.40;99.90;;;;;;5023039;28;20407;-56
2023/09/23 06:24:44;;;;;;;6.10;2.60;;;10.40;99.90;;;;;;5016806;28;20026;-54
2023/09/23 06:27:10;;;;;;;12.85;3.67;;;10.50;99.90;;;;;;5020087;28;20087;-53
2023/09/23 06:29:36;;;;;;;9.25;3.38;;;10.50;99.90;;;;;;5010652;28;20061;-54
2023/09/23 06:32:02;;;;;;;8.13;3.60;;;10.60;99.90;;;;;;5020840;28;20112;-53
2023/09/23 06:34:27;;;;;;;7.93;3.00;;;10.60;99.90;;;;;;5023770;28;20059;-56
2023/09/23 06:36:53;;;;;;;12.77;3.75;;;10.70;99.90;;;;;;5020279;28;20033;-55
2023/09/23 06:39:23;;;;;;;7.22;2.63;;;10.70;99.90;;;;;;5014750;28;20049;-55
2023/09/23 06:41:49;;;;;;;6.70;2.60;;;10.80;99.90;;;;;;5019643;28;20700;-55
2023/09/23 06:44:14;;;;;;;14.02;3.05;;;10.90;99.90;;;;;;5019674;28;20034;-55
2023/09/23 06:46:40;;;;;;;10.27;3.30;;;10.90;99.90;;;;;;5023233;28;20056;-55
2023/09/23 06:49:06;;;;;;;4.63;2.53;;;11.00;99.90;;;;;;5021498;28;20502;-53
2023/09/23 06:51:31;;;;;;;9.73;3.55;;;11.00;99.90;;;;;;5020164;28;20022;-56
2023/09/23 06:53:57;;;;;;;12.77;2.75;;;11.10;99.90;;;;;;5021233;28;20080;-54
2023/09/23 06:56:23;;;;;;;4.15;2.83;;;11.20;99.90;;;;;;5023164;28;20084;-55
2023/09/23 06:58:48;;;;;;;7.65;2.72;;;11.30;99.90;;;;;;5013026;28;20033;-55
2023/09/23 07:01:14;;;;;;;4.80;2.30;;;11.40;99.90;;;;;;5022892;28;20439;-58
2023/09/23 07:03:40;;;;;;;7.15;2.42;;;11.50;99.90;;;;;;5012867;28;20661;-57
2023/09/23 07:06:06;;;;;;;7.32;2.58;;;11.60;99.90;;;;;;5014228;28;20684;-56
2023/09/23 07:08:31;;;;;;;11.68;2.80;;;11.70;99.90;;;;;;5014949;28;20087;-56
2023/09/23 07:10:57;;;;;;;6.90;2.42;;;11.70;99.90;;;;;;5015752;28;20112;-57
2023/09/23 07:13:22;;;;;;;3.65;2.47;;;11.80;99.90;;;;;;5025048;28;20457;-56
2023/09/23 07:15:48;;;;;;;7.40;2.55;;;11.90;99.90;;;;;;5013008;28;20034;-55
2023/09/23 07:18:14;;;;;;;5.05;2.53;;;12.10;99.90;;;;;;5020169;28;20500;-53
2023/09/23 07:20:40;;;;;;;10.02;2.83;;;12.20;99.90;;;;;;5012432;28;20056;-57
2023/09/23 07:23:05;;;;;;;7.85;1.90;;;12.40;99.90;;;;;;5026935;28;20880;-55
2023/09/23 07:25:42;;;;;;;6.88;2.08;;;12.60;99.90;;;;;;5019781;28;20021;-55
2023/09/23 07:28:08;;;;;;;10.50;2.30;;;12.70;99.90;;;;;;5023963;28;20537;-56
2023/09/23 07:30:35;;;;;;;2.88;1.42;;;12.70;99.90;;;;;;5016548;28;20022;-52
2023/09/23 07:33:00;;;;;;;5.65;1.88;;;12.80;99.90;;;;;;5017659;28;20032;-56
2023/09/23 07:35:32;;;;;;;2.85;1.33;;;12.90;99.90;;;;;;5014833;28;20030;-51
2023/09/23 07:38:01;;;;;;;12.32;2.13;;;13.00;99.90;;;;;;5033584;28;20033;-51
2023/09/23 07:40:29;;;;;;;9.07;2.03;;;13.10;99.90;;;;;;5021845;28;20018;-52
2023/09/23 07:42:54;;;;;;;4.85;2.05;;;13.20;99.90;;;;;;5018763;28;20029;-55
2023/09/23 07:45:20;;;;;;;3.78;1.92;;;13.20;99.90;;;;;;5020397;28;20043;-57
2023/09/23 07:47:46;;;;;;;6.43;1.60;;;13.30;99.90;;;;;;5024703;28;20022;-55
2023/09/23 07:50:11;;;;;;;12.43;2.15;;;13.30;99.90;;;;;;5018706;28;20776;-56
2023/09/23 07:52:38;;;;;;;7.18;2.08;;;13.50;99.90;;;;;;5026392;28;20433;-56
2023/09/23 07:55:04;;;;;;;2.80;1.27;;;13.50;99.90;;;;;;5021746;28;20037;-53
2023/09/23 07:57:33;;;;;;;5.97;1.58;;;13.60;99.90;;;;;;5018026;28;20033;-52
2023/09/23 07:59:59;;;;;;;7.30;1.75;;;13.80;99.90;;;;;;5016357;28;20041;-55
2023/09/23 08:02:25;;;;;;;8.27;1.40;;;14.00;99.90;;;;;;5021958;28;20113;-52
2023/09/23 08:04:51;;;;;;;8.23;1.73;;;14.10;99.90;;;;;;5012791;28;20104;-54
2023/09/23 08:07:16;;;;;;;3.33;1.30;;;14.20;99.90;;;;;;5025222;28;20045;-54
2023/09/23 08:09:42;;;;;;;6.43;1.35;;;14.20;99.90;;;;;;5021174;28;20040;-55
2023/09/23 08:12:09;;;;;;;3.25;1.08;;;14.30;99.90;;;;;;5020150;28;20080;-54
2023/09/23 08:14:35;;;;;;;6.97;1.63;;;14.40;99.90;;;;;;5017527;28;20074;-53
2023/09/23 08:17:00;;;;;;;8.88;1.45;;;14.40;99.90;;;;;;5011777;28;20045;-54
2023/09/23 08:19:25;;;;;;;7.95;1.52;;;14.40;99.90;;;;;;5012538;28;20044;-53
2023/09/23 08:21:51;;;;;;;10.55;1.23;;;14.50;99.90;;;;;;5019890;28;20121;-53
2023/09/23 08:24:17;;;;;;;2.42;1.45;;;14.50;99.90;;;;;;5022319;28;20569;-51
2023/09/23 08:26:43;;;;;;;4.53;1.48;;;14.60;99.90;;;;;;5012288;28;20026;-55
2023/09/23 08:29:09;;;;;;;5.53;1.77;;;14.70;99.90;;;;;;5026427;28;20033;-56
2023/09/23 08:31:35;;;;;;;8.48;1.45;;;14.80;99.90;;;;;;5022759;28;20080;-50
2023/09/23 08:34:00;;;;;;;5.78;1.20;;;14.90;99.90;;;;;;5022805;28;20034;-54
2023/09/23 08:36:26;;;;;;;6.82;1.50;;;15.00;99.90;;;;;;5018967;28;20049;-54
2023/09/23 08:38:52;;;;;;;2.75;1.08;;;15.00;99.90;;;;;;5031178;28;20071;-55
2023/09/23 08:41:21;;;;;;;6.03;1.15;;;15.00;99.90;;;;;;5026062;28;20087;-53
2023/09/23 08:43:50;;;;;;;4.63;1.30;;;15.20;99.90;;;;;;5023792;28;20116;-58
2023/09/23 08:46:19;;;;;;;5.15;1.20;;;15.30;99.90;;;;;;5013589;28;20022;-59
2023/09/23 08:48:44;;;;;;;2.47;1.10;;;15.30;99.90;;;;;;5030485;28;20026;-58
2023/09/23 08:51:12;;;;;;;5.03;1.33;;;15.30;99.90;;;;;;5020630;28;20025;-59
2023/09/23 08:53:39;;;;;;;4.72;1.15;;;15.30;99.90;;;;;;5018105;28;20391;-56
2023/09/23 08:56:06;;;;;;;11.35;1.15;;;15.30;99.90;;;;;;5020488;28;20025;-55
2023/09/23 08:58:32;;;;;;;3.33;1.08;;;15.40;99.90;;;;;;5016241;28;20576;-52
2023/09/23 09:00:58;;;;;;;10.77;2.13;;;15.60;99.90;;;;;;5019015;28;20116;-56
2023/09/23 09:03:24;;;;;;;2.83;1.10;;;15.70;99.90;;;;;;5017165;28;20420;-53
2023/09/23 09:05:49;;;;;;;8.20;1.55;;;15.60;99.90;;;;;;5018528;28;20053;-52
2023/09/23 09:08:18;;;;;;;8.18;1.10;;;15.50;99.90;;;;;;5016681;28;20427;-55
2023/09/23 09:10:44;;;;;;;10.88;1.45;;;15.60;99.90;;;;;;5015846;28;20068;-52
2023/09/23 09:13:09;;;;;;;3.88;1.40;;;15.60;99.90;;;;;;5015678;28;20033;-57
2023/09/23 09:15:39;;;;;;;2.88;1.02;;;15.60;99.90;;;;;;5016416;28;20040;-53
2023/09/23 09:18:05;;;;;;;2.33;0.75;;;15.60;99.90;;;;;;5018468;28;20041;-55
2023/09/23 09:20:31;;;;;;;2.25;0.98;;;15.70;99.90;;;;;;5017424;28;20022;-57
2023/09/23 09:22:58;;;;;;;4.60;1.05;;;15.70;99.90;;;;;;5020575;28;20021;-57
2023/09/23 09:25:23;;;;;;;7.38;1.05;;;15.50;99.90;;;;;;5019305;28;20083;-56
2023/09/23 09:27:51;;;;;;;5.25;1.27;;;15.60;99.90;;;;;;5022588;28;20030;-55
2023/09/23 09:30:19;;;;;;;4.70;1.45;;;15.50;99.90;;;;;;5018348;28;20088;-53
2023/09/23 09:32:45;;;;;;;1.67;1.02;;;15.50;99.90;;;;;;5020638;28;20029;-57
2023/09/23 09:35:18;;;;;;;2.75;1.23;;;15.60;99.90;;;;;;5027539;28;20106;-53
2023/09/23 09:37:45;;;;;;;2.40;1.00;;;15.70;99.90;;;;;;5020798;28;20073;-58
2023/09/23 09:40:18;;;;;;;3.83;1.10;;;15.80;99.90;;;;;;5019449;28;20574;-55
2023/09/23 09:42:53;;;;;;;5.78;1.00;;;16.00;99.90;;;;;;5024911;28;20075;-52
2023/09/23 09:45:21;;;;;;;3.75;1.05;;;16.00;99.90;;;;;;5020168;28;20499;-57
2023/09/23 09:47:48;;;;;;;3.55;1.20;;;16.10;99.90;;;;;;5027673;28;20041;-57
2023/09/23 09:50:15;;;;;;;5.82;1.30;;;16.10;99.90;;;;;;5035549;28;20024;-56
2023/09/23 09:52:44;;;;;;;2.78;0.90;;;16.20;99.90;;;;;;5021798;28;20033;-55
2023/09/23 09:55:14;;;;;;;5.15;1.10;;;16.40;99.90;;;;;;5023800;28;20109;-59
2023/09/23 09:57:40;;;;;;;4.30;1.17;;;16.30;99.90;;;;;;5017634;28;20525;-54
2023/09/23 10:00:27;;;;;;;4.53;1.15;;;16.40;99.90;;;;;;5024494;28;20116;-57
2023/09/23 10:03:00;;;;;;;8.82;1.52;;;16.60;99.90;;;;;;5019017;28;20042;-54
2023/09/23 10:05:33;;;;;;;1.80;0.77;;;17.00;99.90;;;;;;5028290;28;20420;-57
2023/09/23 10:08:13;;;;;;;6.60;1.05;;;17.10;99.90;;;;;;5024600;28;20028;-54
2023/09/23 10:10:44;;;;;;;6.00;1.40;;;17.10;99.90;;;;;;5030644;28;20026;-59
2023/09/23 10:13:15;;;;;;;6.50;1.02;;;17.10;99.90;;;;;;5030576;28;20044;-55
2023/09/23 10:15:41;;;;;;;2.95;0.90;;;17.30;99.90;;;;;;5014372;28;20029;-57
2023/09/23 10:18:13;;;;;;;6.13;1.10;;;17.00;99.90;;;;;;5027581;28;20034;-56
2023/09/23 10:20:56;;;;;;;4.68;0.70;;;16.70;99.90;;;;;;5021740;28;20520;-56
2023/09/23 10:23:22;;;;;;;3.58;0.80;;;16.30;99.90;;;;;;5022272;28;20030;-58
2023/09/23 10:25:50;;;;;;;2.80;0.80;;;16.40;99.90;;;;;;5025167;28;20025;-58
2023/09/23 10:28:23;;;;;;;3.20;0.85;;;16.90;99.90;;;;;;5034081;28;20017;-57
2023/09/23 10:31:03;;;;;;;3.53;1.05;;;17.10;99.90;;;;;;5009648;28;20036;-57
2023/09/23 10:33:30;;;;;;;1.08;0.57;;;17.20;99.90;;;;;;5018965;28;20045;-58
2023/09/23 10:36:00;;;;;;;4.63;0.77;;;17.30;99.90;;;;;;5018735;28;20036;-54
2023/09/23 10:38:28;;;;;;;2.70;1.15;;;17.50;99.90;;;;;;5028831;28;20072;-58
2023/09/23 10:40:54;;;;;;;2.03;0.85;;;17.60;99.90;;;;;;5019519;28;20076;-58
2023/09/23 10:43:24;;;;;;;1.98;0.60;;;17.70;99.90;;;;;;5026047;28;20529;-56
2023/09/23 10:45:56;;;;;;;2.05;0.93;;;17.70;99.90;;;;;;5020470;28;20040;-58
2023/09/23 10:48:22;;;;;;;4.10;0.88;;;17.30;99.90;;;;;;5023175;28;20068;-58
2023/09/23 10:50:48;;;;;;;3.78;1.08;;;17.30;99.90;;;;;;5022230;28;20584;-56
2023/09/23 10:53:15;;;;;;;17.13;1.30;;;17.00;99.90;;;;;;5019287;28;20031;-58
2023/09/23 10:55:40;;;;;;;6.30;1.00;;;17.30;99.90;;;;;;5016231;28;20103;-53
2023/09/23 10:58:10;;;;;;;2.78;1.20;;;17.00;99.90;;;;;;5026243;28;20472;-57
2023/09/23 11:00:40;;;;;;;2.38;1.33;;;17.10;99.90;;;;;;5027005;28;20034;-54
2023/09/23 11:03:10;;;;;;;3.08;1.05;;;17.20;99.90;;;;;;5018581;28;20025;-58
2023/09/23 11:05:37;;;;;;;5.30;0.80;;;16.70;99.90;;;;;;5018522;28;20038;-58
2023/09/23 11:08:08;;;;;;;1.98;0.90;;;17.10;99.90;;;;;;5023763;28;20022;-52
2023/09/23 11:10:36;;;;;;;2.28;1.05;;;17.30;99.90;;;;;;5025827;28;20036;-57
2023/09/23 11:13:10;;;;;;;3.80;1.00;;;17.50;99.90;;;;;;5023171;28;20030;-57
2023/09/23 11:15:38;;;;;;;7.03;0.90;;;17.60;99.90;;;;;;5028560;28;20033;-58
2023/09/23 11:18:07;;;;;;;2.13;1.00;;;17.60;99.90;;;;;;5029891;28;20092;-56
2023/09/23 11:20:34;;;;;;;9.38;1.25;;;17.80;99.90;;;;;;5020669;28;20030;-57
2023/09/23 11:23:03;;;;;;;5.40;1.00;;;18.00;99.90;;;;;;5023108;28;20108;-56
2023/09/23 11:25:42;;;;;;;2.25;1.23;;;17.80;99.90;;;;;;5023944;28;20116;-54
2023/09/23 11:28:15;;;;;;;3.10;1.10;;;17.70;99.90;;;;;;5024698;28;20608;-58
2023/09/23 11:30:41;;;;;;;7.43;1.00;;;17.30;99.90;;;;;;5019255;28;20057;-56
2023/09/23 11:33:06;;;;;;;1.58;0.82;;;17.00;99.90;;;;;;5026413;28;20092;-57
2023/09/23 11:35:33;;;;;;;2.20;1.00;;;17.20;99.90;;;;;;5023528;28;20502;-58
2023/09/23 11:37:59;;;;;;;4.97;1.38;;;17.60;99.90;;;;;;5020142;28;20037;-54
2023/09/23 11:40:25;;;;;;;2.22;1.02;;;18.10;99.90;;;;;;5026094;28;20036;-57
2023/09/23 11:42:50;;;;;;;4.63;1.15;;;18.30;99.90;;;;;;5021163;28;20045;-53
2023/09/23 11:45:16;;;;;;;3.28;0.88;;;18.00;99.90;;;;;;5031087;28;20022;-58
2023/09/23 11:47:41;;;;;;;3.45;0.90;;;18.00;99.90;;;;;;5025804;28;20036;-59
2023/09/23 11:50:07;;;;;;;1.70;0.93;;;18.20;99.90;;;;;;5028223;28;20034;-57
2023/09/23 11:52:33;;;;;;;2.65;0.88;;;18.50;99.90;;;;;;5034829;28;20017;-60
2023/09/23 11:54:59;;;;;;;2.17;0.90;;;18.60;99.90;;;;;;5032880;28;20479;-55
2023/09/23 11:57:26;;;;;;;1.83;1.10;;;18.40;99.90;;;;;;5026926;28;20548;-60
2023/09/23 11:59:51;;;;;;;4.45;1.15;;;18.30;99.90;;;;;;5020769;28;20028;-58
2023/09/23 12:02:18;;;;;;;5.60;1.85;;;18.60;99.90;;;;;;5030037;28;20029;-58
2023/09/23 12:04:46;;;;;;;1.67;1.35;;;18.80;99.90;;;;;;5030883;28;20104;-59
2023/09/23 12:07:14;;;;;;;2.40;1.65;;;18.60;99.90;;;;;;5033322;28;20113;-58
2023/09/23 12:09:40;;;;;;;4.30;1.90;;;18.80;99.90;;;;;;5026481;28;20018;-57
2023/09/23 12:12:06;;;;;;;4.70;2.20;;;18.80;99.90;;;;;;5026272;28;20113;-57
2023/09/23 12:14:32;;;;;;;2.97;2.40;;;19.00;99.90;;;;;;5029167;28;20034;-57
2023/09/23 12:16:57;;;;;;;3.42;2.40;;;19.10;99.90;;;;;;5026691;28;20450;-58
2023/09/23 12:19:23;;;;;;;4.03;2.15;;;19.00;99.90;;;;;;5025056;28;20053;-57
2023/09/23 12:21:49;;;;;;;4.43;2.40;;;19.10;99.90;;;;;;5028933;28;20086;-57
2023/09/23 12:24:15;;;;;;;5.13;2.30;;;19.20;99.90;;;;;;5031054;28;20122;-56
2023/09/23 12:26:41;;;;;;;2.70;2.17;;;19.30;99.90;;;;;;5023748;28;20034;-53
2023/09/23 12:29:06;;;;;;;2.47;1.85;;;19.50;99.90;;;;;;5028454;28;20029;-58
2023/09/23 12:31:32;;;;;;;3.05;1.98;;;19.60;99.90;;;;;;5027004;28;20021;-58
2023/09/23 12:33:57;;;;;;;5.85;2.00;;;19.80;99.90;;;;;;5026956;28;20855;-58
2023/09/23 12:36:23;;;;;;;6.53;2.35;;;19.60;99.90;;;;;;5026167;28;20104;-59
2023/09/23 12:38:49;;;;;;;10.25;2.85;;;19.30;99.90;;;;;;5025143;28;20045;-58
2023/09/23 12:41:15;;;;;;;2.42;2.20;;;18.90;99.90;;;;;;5033842;28;20045;-57
2023/09/23 12:43:41;;;;;;;3.90;2.55;;;18.80;99.90;;;;;;5027782;28;20028;-59